sensor_id;sensor_type;location;lat;lon;timestamp;temperature;humidity
18658;DHT22;9458;50.942;5.074;2023-06-26T00:01:06;24.10;99.90
18658;DHT22;9458;50.942;5.074;2023-06-26T00:03:35;24.20;99.90
18658;DHT22;9458;50.942;5.074;2023-06-26T00:06:01;24.20;99.90
18658;DHT22;9458;50.942;5.074;2023-06-26T00:08:28;24.10;99.90
18658;DHT22;9458;50.942;5.074;2023-06-26T00:10:55;24.10;99.90
18658;DHT22;9458;50.942;5.074;2023-06-26T00:13:23;24.10;99.90
18658;DHT22;9458;50.942;5.074;2023-06-26T00:15:49;24.00;99.90
18658;DHT22;9458;50.942;5.074;2023-06-26T00:18:16;24.00;99.90
18658;DHT22;9458;50.942;5.074;2023-06-26T00:20:45;23.90;99.90
18658;DHT22;9458;50.942;5.074;2023-06-26T00:23:12;23.90;99.90
18658;DHT22;9458;50.942;5.074;2023-06-26T00:25:42;23.80;99.90
18658;DHT22;9458;50.942;5.074;2023-06-26T00:28:09;23.80;99.90
18658;DHT22;9458;50.942;5.074;2023-06-26T00:30:36;23.80;99.90
18658;DHT22;9458;50.942;5.074;2023-06-26T00:33:03;23.80;99.90
18658;DHT22;9458;50.942;5.074;2023-06-26T00:35:30;23.80;99.90
18658;DHT22;9458;50.942;5.074;2023-06-26T00:37:58;23.80;99.90
18658;DHT22;9458;50.942;5.074;2023-06-26T00:40:25;23.80;99.90
18658;DHT22;9458;50.942;5.074;2023-06-26T00:42:52;23.80;99.90
18658;DHT22;9458;50.942;5.074;2023-06-26T00:45:19;23.70;99.90
18658;DHT22;9458;50.942;5.074;2023-06-26T00:47:46;23.60;99.90
18658;DHT22;9458;50.942;5.074;2023-06-26T00:50:13;23.60;99.90
18658;DHT22;9458;50.942;5.074;2023-06-26T00:52:41;23.50;99.90
18658;DHT22;9458;50.942;5.074;2023-06-26T00:55:10;23.50;99.90
18658;DHT22;9458;50.942;5.074;2023-06-26T00:57:37;23.40;99.90
18658;DHT22;9458;50.942;5.074;2023-06-26T01:00:04;23.40;99.90
18658;DHT22;9458;50.942;5.074;2023-06-26T01:02:31;23.40;99.90
18658;DHT22;9458;50.942;5.074;2023-06-26T01:04:59;23.40;99.90
18658;DHT22;9458;50.942;5.074;2023-06-26T01:07:28;23.40;99.90
18658;DHT22;9458;50.942;5.074;2023-06-26T01:10:01;23.40;99.90
18658;DHT22;9458;50.942;5.074;2023-06-26T01:12:31;23.40;99.90
18658;DHT22;9458;50.942;5.074;2023-06-26T01:14:58;23.30;99.90
18658;DHT22;9458;50.942;5.074;2023-06-26T01:17:25;23.30;99.90
18658;DHT22;9458;50.942;5.074;2023-06-26T01:19:56;23.30;99.90
18658;DHT22;9458;50.942;5.074;2023-06-26T01:22:25;23.30;99.90
18658;DHT22;9458;50.942;5.074;2023-06-26T01:24:56;23.20;99.90
18658;DHT22;9458;50.942;5.074;2023-06-26T01:27:29;23.20;99.90
18658;DHT22;9458;50.942;5.074;2023-06-26T01:29:57;23.20;99.90
18658;DHT22;9458;50.942;5.074;2023-06-26T01:32:27;23.20;99.90
18658;DHT22;9458;50.942;5.074;2023-06-26T01:34:54;23.10;99.90
18658;DHT22;9458;50.942;5.074;2023-06-26T01:37:21;23.00;99.90
18658;DHT22;9458;50.942;5.074;2023-06-26T01:39:48;23.00;99.90
18658;DHT22;9458;50.942;5.074;2023-06-26T01:42:15;22.90;99.90
18658;DHT22;9458;50.942;5.074;2023-06-26T01:44:44;22.90;99.90
18658;DHT22;9458;50.942;5.074;2023-06-26T01:47:12;23.00;99.90
18658;DHT22;9458;50.942;5.074;2023-06-26T01:49:44;22.80;99.90
18658;DHT22;9458;50.942;5.074;2023-06-26T01:52:13;22.80;99.90
18658;DHT22;9458;50.942;5.074;2023-06-26T01:54:43;22.90;99.90
18658;DHT22;9458;50.942;5.074;2023-06-26T01:57:13;22.60;99.90
18658;DHT22;9458;50.942;5.074;2023-06-26T01:59:40;22.60;99.90
18658;DHT22;9458;50.942;5.074;2023-06-26T02:02:10;22.50;99.90
18658;DHT22;9458;50.942;5.074;2023-06-26T02:04:37;22.40;99.90
18658;DHT22;9458;50.942;5.074;2023-06-26T02:07:04;22.20;99.90
18658;DHT22;9458;50.942;5.074;2023-06-26T02:09:31;22.30;99.90
18658;DHT22;9458;50.942;5.074;2023-06-26T02:11:58;22.30;99.90
18658;DHT22;9458;50.942;5.074;2023-06-26T02:14:25;22.30;99.90
18658;DHT22;9458;50.942;5.074;2023-06-26T02:16:52;22.30;99.90
18658;DHT22;9458;50.942;5.074;2023-06-26T02:19:20;22.30;99.90
18658;DHT22;9458;50.942;5.074;2023-06-26T02:21:48;22.30;99.90
18658;DHT22;9458;50.942;5.074;2023-06-26T02:24:15;22.40;99.90
18658;DHT22;9458;50.942;5.074;2023-06-26T02:26:42;22.30;99.90
18658;DHT22;9458;50.942;5.074;2023-06-26T02:29:10;22.30;99.90
18658;DHT22;9458;50.942;5.074;2023-06-26T02:31:37;22.40;99.90
18658;DHT22;9458;50.942;5.074;2023-06-26T02:34:04;22.30;99.90
18658;DHT22;9458;50.942;5.074;2023-06-26T02:36:33;22.20;99.90
18658;DHT22;9458;50.942;5.074;2023-06-26T02:39:00;22.10;99.90
18658;DHT22;9458;50.942;5.074;2023-06-26T02:41:27;22.00;99.90
18658;DHT22;9458;50.942;5.074;2023-06-26T02:43:59;21.90;99.90
18658;DHT22;9458;50.942;5.074;2023-06-26T02:46:26;21.90;99.90
18658;DHT22;9458;50.942;5.074;2023-06-26T02:48:53;21.80;99.90
18658;DHT22;9458;50.942;5.074;2023-06-26T02:51:21;21.80;99.90
18658;DHT22;9458;50.942;5.074;2023-06-26T02:53:50;21.70;99.90
18658;DHT22;9458;50.942;5.074;2023-06-26T02:56:17;21.70;99.90
18658;DHT22;9458;50.942;5.074;2023-06-26T02:58:44;21.70;99.90
18658;DHT22;9458;50.942;5.074;2023-06-26T03:01:11;21.70;99.90
18658;DHT22;9458;50.942;5.074;2023-06-26T03:03:38;21.70;99.90
18658;DHT22;9458;50.942;5.074;2023-06-26T03:06:07;21.70;99.90
18658;DHT22;9458;50.942;5.074;2023-06-26T03:08:35;21.70;99.90
18658;DHT22;9458;50.942;5.074;2023-06-26T03:11:04;21.60;99.90
18658;DHT22;9458;50.942;5.074;2023-06-26T03:13:31;21.50;99.90
18658;DHT22;9458;50.942;5.074;2023-06-26T03:15:58;21.40;99.90
18658;DHT22;9458;50.942;5.074;2023-06-26T03:18:25;21.30;99.90
18658;DHT22;9458;50.942;5.074;2023-06-26T03:20:52;21.30;99.90
18658;DHT22;9458;50.942;5.074;2023-06-26T03:23:20;21.30;99.90
18658;DHT22;9458;50.942;5.074;2023-06-26T03:25:47;21.30;99.90
18658;DHT22;9458;50.942;5.074;2023-06-26T03:28:15;21.30;99.90
18658;DHT22;9458;50.942;5.074;2023-06-26T03:30:42;21.10;99.90
18658;DHT22;9458;50.942;5.074;2023-06-26T03:33:09;21.00;99.90
18658;DHT22;9458;50.942;5.074;2023-06-26T03:35:36;21.10;99.90
18658;DHT22;9458;50.942;5.074;2023-06-26T03:38:03;21.10;99.90
18658;DHT22;9458;50.942;5.074;2023-06-26T03:40:30;21.10;99.90
18658;DHT22;9458;50.942;5.074;2023-06-26T03:42:57;21.10;99.90
18658;DHT22;9458;50.942;5.074;2023-06-26T03:45:26;21.00;99.90
18658;DHT22;9458;50.942;5.074;2023-06-26T03:47:52;21.00;99.90
18658;DHT22;9458;50.942;5.074;2023-06-26T03:50:19;21.00;99.90
18658;DHT22;9458;50.942;5.074;2023-06-26T03:52:46;21.00;99.90
18658;DHT22;9458;50.942;5.074;2023-06-26T03:55:13;20.90;99.90
18658;DHT22;9458;50.942;5.074;2023-06-26T03:57:40;20.90;99.90
18658;DHT22;9458;50.942;5.074;2023-06-26T04:00:07;21.00;99.90
18658;DHT22;9458;50.942;5.074;2023-06-26T04:02:36;21.00;99.90
18658;DHT22;9458;50.942;5.074;2023-06-26T04:05:03;21.00;99.90
18658;DHT22;9458;50.942;5.074;2023-06-26T04:07:30;21.30;99.90
18658;DHT22;9458;50.942;5.074;2023-06-26T04:09:57;21.10;99.90
18658;DHT22;9458;50.942;5.074;2023-06-26T04:12:24;21.10;99.90
18658;DHT22;9458;50.942;5.074;2023-06-26T04:14:51;21.10;99.90
18658;DHT22;9458;50.942;5.074;2023-06-26T04:17:18;21.20;99.90
18658;DHT22;9458;50.942;5.074;2023-06-26T04:19:46;21.10;99.90
18658;DHT22;9458;50.942;5.074;2023-06-26T04:22:13;21.30;99.90
18658;DHT22;9458;50.942;5.074;2023-06-26T04:24:40;21.50;99.90
18658;DHT22;9458;50.942;5.074;2023-06-26T04:27:07;21.30;99.90
18658;DHT22;9458;50.942;5.074;2023-06-26T04:29:34;21.30;99.90
18658;DHT22;9458;50.942;5.074;2023-06-26T04:32:01;21.10;99.90
18658;DHT22;9458;50.942;5.074;2023-06-26T04:34:28;20.90;99.90
18658;DHT22;9458;50.942;5.074;2023-06-26T04:37:02;21.00;99.90
18658;DHT22;9458;50.942;5.074;2023-06-26T04:39:30;20.90;99.90
18658;DHT22;9458;50.942;5.074;2023-06-26T04:41:57;20.80;99.90
18658;DHT22;9458;50.942;5.074;2023-06-26T04:44:24;21.50;99.90
18658;DHT22;9458;50.942;5.074;2023-06-26T04:46:50;22.30;99.90
18658;DHT22;9458;50.942;5.074;2023-06-26T04:49:18;23.10;99.90
18658;DHT22;9458;50.942;5.074;2023-06-26T04:51:45;23.80;99.90
18658;DHT22;9458;50.942;5.074;2023-06-26T04:54:13;24.50;99.90
18658;DHT22;9458;50.942;5.074;2023-06-26T04:56:40;25.00;99.90
18658;DHT22;9458;50.942;5.074;2023-06-26T04:59:09;25.00;99.90
18658;DHT22;9458;50.942;5.074;2023-06-26T05:01:38;25.00;99.90
18658;DHT22;9458;50.942;5.074;2023-06-26T05:04:05;24.70;99.90
18658;DHT22;9458;50.942;5.074;2023-06-26T05:06:32;24.50;99.90
18658;DHT22;9458;50.942;5.074;2023-06-26T05:08:59;24.20;99.90
18658;DHT22;9458;50.942;5.074;2023-06-26T05:11:27;24.10;99.90
18658;DHT22;9458;50.942;5.074;2023-06-26T05:13:54;24.50;99.90
18658;DHT22;9458;50.942;5.074;2023-06-26T05:16:21;25.00;99.90
18658;DHT22;9458;50.942;5.074;2023-06-26T05:18:48;25.20;99.90
18658;DHT22;9458;50.942;5.074;2023-06-26T05:21:15;25.30;99.90
18658;DHT22;9458;50.942;5.074;2023-06-26T05:23:42;25.70;99.90
18658;DHT22;9458;50.942;5.074;2023-06-26T05:26:09;26.30;99.90
18658;DHT22;9458;50.942;5.074;2023-06-26T05:28:40;26.90;99.90
18658;DHT22;9458;50.942;5.074;2023-06-26T05:31:09;26.90;99.90
18658;DHT22;9458;50.942;5.074;2023-06-26T05:33:36;26.70;99.90
18658;DHT22;9458;50.942;5.074;2023-06-26T05:36:04;26.50;99.90
18658;DHT22;9458;50.942;5.074;2023-06-26T05:38:32;26.40;99.90
18658;DHT22;9458;50.942;5.074;2023-06-26T05:40:59;27.10;99.90
18658;DHT22;9458;50.942;5.074;2023-06-26T05:43:26;27.30;99.90
18658;DHT22;9458;50.942;5.074;2023-06-26T05:45:55;27.00;99.90
18658;DHT22;9458;50.942;5.074;2023-06-26T05:48:22;27.30;99.90
18658;DHT22;9458;50.942;5.074;2023-06-26T05:50:49;26.70;99.90
18658;DHT22;9458;50.942;5.074;2023-06-26T05:53:16;26.30;99.90
18658;DHT22;9458;50.942;5.074;2023-06-26T05:55:44;26.80;99.90
18658;DHT22;9458;50.942;5.074;2023-06-26T05:58:10;27.70;99.90
18658;DHT22;9458;50.942;5.074;2023-06-26T06:00:38;28.20;99.90
18658;DHT22;9458;50.942;5.074;2023-06-26T06:03:09;28.40;99.90
18658;DHT22;9458;50.942;5.074;2023-06-26T06:05:36;28.70;99.90
18658;DHT22;9458;50.942;5.074;2023-06-26T06:08:03;28.80;99.90
18658;DHT22;9458;50.942;5.074;2023-06-26T06:10:30;28.90;99.80
18658;DHT22;9458;50.942;5.074;2023-06-26T06:12:57;29.20;99.90
18658;DHT22;9458;50.942;5.074;2023-06-26T06:15:24;29.90;98.10
18658;DHT22;9458;50.942;5.074;2023-06-26T06:17:51;29.90;97.30
18658;DHT22;9458;50.942;5.074;2023-06-26T06:20:19;30.10;96.90
18658;DHT22;9458;50.942;5.074;2023-06-26T06:22:46;30.20;96.60
18658;DHT22;9458;50.942;5.074;2023-06-26T06:25:14;30.30;96.70
18658;DHT22;9458;50.942;5.074;2023-06-26T06:27:41;30.40;95.80
18658;DHT22;9458;50.942;5.074;2023-06-26T06:30:09;30.40;95.40
18658;DHT22;9458;50.942;5.074;2023-06-26T06:32:36;30.90;95.10
18658;DHT22;9458;50.942;5.074;2023-06-26T06:35:03;30.90;94.50
18658;DHT22;9458;50.942;5.074;2023-06-26T06:37:36;30.80;94.40
18658;DHT22;9458;50.942;5.074;2023-06-26T06:40:04;30.80;94.30
18658;DHT22;9458;50.942;5.074;2023-06-26T06:42:32;31.30;94.10
18658;DHT22;9458;50.942;5.074;2023-06-26T06:44:59;31.20;93.40
18658;DHT22;9458;50.942;5.074;2023-06-26T06:47:26;30.90;93.80
18658;DHT22;9458;50.942;5.074;2023-06-26T06:49:53;31.40;93.00
18658;DHT22;9458;50.942;5.074;2023-06-26T06:52:22;30.90;92.90
18658;DHT22;9458;50.942;5.074;2023-06-26T06:54:53;31.10;93.10
18658;DHT22;9458;50.942;5.074;2023-06-26T06:57:21;30.80;93.10
18658;DHT22;9458;50.942;5.074;2023-06-26T06:59:48;30.80;93.30
18658;DHT22;9458;50.942;5.074;2023-06-26T07:02:15;31.50;92.80
18658;DHT22;9458;50.942;5.074;2023-06-26T07:04:43;31.50;92.00
18658;DHT22;9458;50.942;5.074;2023-06-26T07:07:10;32.50;92.00
18658;DHT22;9458;50.942;5.074;2023-06-26T07:09:37;32.30;91.10
18658;DHT22;9458;50.942;5.074;2023-06-26T07:12:06;31.90;91.90
18658;DHT22;9458;50.942;5.074;2023-06-26T07:14:33;31.00;92.20
18658;DHT22;9458;50.942;5.074;2023-06-26T07:17:00;31.60;92.30
18658;DHT22;9458;50.942;5.074;2023-06-26T07:19:27;32.10;91.60
18658;DHT22;9458;50.942;5.074;2023-06-26T07:21:54;31.80;91.20
18658;DHT22;9458;50.942;5.074;2023-06-26T07:24:20;32.00;91.90
18658;DHT22;9458;50.942;5.074;2023-06-26T07:26:47;32.20;91.00
18658;DHT22;9458;50.942;5.074;2023-06-26T07:29:16;32.40;91.20
18658;DHT22;9458;50.942;5.074;2023-06-26T07:31:43;32.20;91.00
18658;DHT22;9458;50.942;5.074;2023-06-26T07:34:10;31.30;92.10
18658;DHT22;9458;50.942;5.074;2023-06-26T07:36:37;32.20;91.80
18658;DHT22;9458;50.942;5.074;2023-06-26T07:39:04;32.20;91.50
18658;DHT22;9458;50.942;5.074;2023-06-26T07:41:31;31.20;91.70
18658;DHT22;9458;50.942;5.074;2023-06-26T07:43:58;31.90;92.00
18658;DHT22;9458;50.942;5.074;2023-06-26T07:46:26;32.30;91.10
18658;DHT22;9458;50.942;5.074;2023-06-26T07:48:53;31.40;91.30
18658;DHT22;9458;50.942;5.074;2023-06-26T07:51:20;31.10;91.90
18658;DHT22;9458;50.942;5.074;2023-06-26T07:53:47;30.80;93.40
18658;DHT22;9458;50.942;5.074;2023-06-26T07:56:14;30.40;93.60
18658;DHT22;9458;50.942;5.074;2023-06-26T07:58:41;30.10;93.50
18658;DHT22;9458;50.942;5.074;2023-06-26T08:01:08;30.80;92.90
18658;DHT22;9458;50.942;5.074;2023-06-26T08:03:36;31.50;92.20
18658;DHT22;9458;50.942;5.074;2023-06-26T08:06:04;31.20;92.20
18658;DHT22;9458;50.942;5.074;2023-06-26T08:08:31;30.70;92.70
18658;DHT22;9458;50.942;5.074;2023-06-26T08:10:58;30.90;92.90
18658;DHT22;9458;50.942;5.074;2023-06-26T08:13:24;32.10;93.00
18658;DHT22;9458;50.942;5.074;2023-06-26T08:15:52;32.20;91.60
18658;DHT22;9458;50.942;5.074;2023-06-26T08:18:18;32.10;91.50
18658;DHT22;9458;50.942;5.074;2023-06-26T08:20:47;32.30;91.50
18658;DHT22;9458;50.942;5.074;2023-06-26T08:23:13;31.10;91.70
18658;DHT22;9458;50.942;5.074;2023-06-26T08:25:40;31.20;92.90
18658;DHT22;9458;50.942;5.074;2023-06-26T08:28:07;31.40;91.70
18658;DHT22;9458;50.942;5.074;2023-06-26T08:30:34;30.90;92.20
18658;DHT22;9458;50.942;5.074;2023-06-26T08:33:01;30.10;92.50
18658;DHT22;9458;50.942;5.074;2023-06-26T08:35:28;30.60;92.80
18658;DHT22;9458;50.942;5.074;2023-06-26T08:37:56;31.00;92.00
18658;DHT22;9458;50.942;5.074;2023-06-26T08:40:23;31.40;93.00
18658;DHT22;9458;50.942;5.074;2023-06-26T08:42:50;31.20;91.50
18658;DHT22;9458;50.942;5.074;2023-06-26T08:45:19;30.90;91.90
18658;DHT22;9458;50.942;5.074;2023-06-26T08:47:46;31.00;91.50
18658;DHT22;9458;50.942;5.074;2023-06-26T08:50:14;31.10;91.60
18658;DHT22;9458;50.942;5.074;2023-06-26T08:52:45;31.10;91.40
18658;DHT22;9458;50.942;5.074;2023-06-26T08:55:16;31.10;92.40
18658;DHT22;9458;50.942;5.074;2023-06-26T08:57:45;31.20;92.20
18658;DHT22;9458;50.942;5.074;2023-06-26T09:00:12;30.70;92.00
18658;DHT22;9458;50.942;5.074;2023-06-26T09:02:40;30.40;91.60
18658;DHT22;9458;50.942;5.074;2023-06-26T09:05:07;30.40;91.20
18658;DHT22;9458;50.942;5.074;2023-06-26T09:07:35;29.60;91.50
18658;DHT22;9458;50.942;5.074;2023-06-26T09:10:01;29.50;92.30
18658;DHT22;9458;50.942;5.074;2023-06-26T09:12:30;29.10;92.00
18658;DHT22;9458;50.942;5.074;2023-06-26T09:14:57;29.60;93.70
18658;DHT22;9458;50.942;5.074;2023-06-26T09:17:25;29.60;91.60
18658;DHT22;9458;50.942;5.074;2023-06-26T09:19:52;28.90;92.10
18658;DHT22;9458;50.942;5.074;2023-06-26T09:22:19;28.60;92.80
18658;DHT22;9458;50.942;5.074;2023-06-26T09:24:47;29.30;92.30
18658;DHT22;9458;50.942;5.074;2023-06-26T09:27:14;29.50;90.80
18658;DHT22;9458;50.942;5.074;2023-06-26T09:29:42;29.70;91.70
18658;DHT22;9458;50.942;5.074;2023-06-26T09:32:11;29.30;91.50
18658;DHT22;9458;50.942;5.074;2023-06-26T09:34:40;29.00;91.60
18658;DHT22;9458;50.942;5.074;2023-06-26T09:37:08;29.50;91.60
18658;DHT22;9458;50.942;5.074;2023-06-26T09:39:34;29.10;90.00
18658;DHT22;9458;50.942;5.074;2023-06-26T09:42:01;29.20;90.40
18658;DHT22;9458;50.942;5.074;2023-06-26T09:44:30;29.40;91.30
18658;DHT22;9458;50.942;5.074;2023-06-26T09:46:58;29.00;92.00
18658;DHT22;9458;50.942;5.074;2023-06-26T09:49:25;28.90;91.40
18658;DHT22;9458;50.942;5.074;2023-06-26T09:51:52;29.20;89.00
18658;DHT22;9458;50.942;5.074;2023-06-26T09:54:21;29.10;88.90
18658;DHT22;9458;50.942;5.074;2023-06-26T09:56:48;28.80;89.50
18658;DHT22;9458;50.942;5.074;2023-06-26T09:59:15;28.40;90.80
18658;DHT22;9458;50.942;5.074;2023-06-26T10:01:43;27.80;91.90
18658;DHT22;9458;50.942;5.074;2023-06-26T10:04:13;27.70;93.40
18658;DHT22;9458;50.942;5.074;2023-06-26T10:06:41;28.40;91.30
18658;DHT22;9458;50.942;5.074;2023-06-26T10:09:10;29.00;92.10
18658;DHT22;9458;50.942;5.074;2023-06-26T10:11:40;29.10;91.00
18658;DHT22;9458;50.942;5.074;2023-06-26T10:14:07;28.90;90.80
18658;DHT22;9458;50.942;5.074;2023-06-26T10:16:35;28.60;90.90
18658;DHT22;9458;50.942;5.074;2023-06-26T10:19:04;28.50;91.70
18658;DHT22;9458;50.942;5.074;2023-06-26T10:21:34;29.00;91.30
18658;DHT22;9458;50.942;5.074;2023-06-26T10:24:01;29.30;91.00
18658;DHT22;9458;50.942;5.074;2023-06-26T10:26:29;29.90;90.10
18658;DHT22;9458;50.942;5.074;2023-06-26T10:28:57;29.90;90.10
18658;DHT22;9458;50.942;5.074;2023-06-26T10:31:25;29.00;88.30
18658;DHT22;9458;50.942;5.074;2023-06-26T10:33:53;28.90;89.70
18658;DHT22;9458;50.942;5.074;2023-06-26T10:36:27;29.30;90.00
18658;DHT22;9458;50.942;5.074;2023-06-26T10:38:57;28.80;87.20
18658;DHT22;9458;50.942;5.074;2023-06-26T10:41:25;28.50;88.60
18658;DHT22;9458;50.942;5.074;2023-06-26T10:44:05;27.90;87.30
18658;DHT22;9458;50.942;5.074;2023-06-26T10:46:33;27.60;89.30
18658;DHT22;9458;50.942;5.074;2023-06-26T10:49:00;27.80;91.40
18658;DHT22;9458;50.942;5.074;2023-06-26T10:51:28;28.40;91.70
18658;DHT22;9458;50.942;5.074;2023-06-26T10:53:57;28.70;88.40
18658;DHT22;9458;50.942;5.074;2023-06-26T10:56:43;28.70;86.70
18658;DHT22;9458;50.942;5.074;2023-06-26T10:59:14;28.40;86.40
18658;DHT22;9458;50.942;5.074;2023-06-26T11:01:42;27.80;88.50
18658;DHT22;9458;50.942;5.074;2023-06-26T11:04:09;27.20;87.10
18658;DHT22;9458;50.942;5.074;2023-06-26T11:06:37;27.20;87.90
18658;DHT22;9458;50.942;5.074;2023-06-26T11:09:10;27.30;85.80
18658;DHT22;9458;50.942;5.074;2023-06-26T11:11:58;27.80;86.00
18658;DHT22;9458;50.942;5.074;2023-06-26T11:14:30;27.60;86.80
18658;DHT22;9458;50.942;5.074;2023-06-26T11:16:58;27.70;90.10
18658;DHT22;9458;50.942;5.074;2023-06-26T11:19:25;28.00;89.70
18658;DHT22;9458;50.942;5.074;2023-06-26T11:21:52;28.20;85.20
18658;DHT22;9458;50.942;5.074;2023-06-26T11:24:26;28.10;85.80
18658;DHT22;9458;50.942;5.074;2023-06-26T11:26:52;27.90;88.40
18658;DHT22;9458;50.942;5.074;2023-06-26T11:29:19;27.60;89.10
18658;DHT22;9458;50.942;5.074;2023-06-26T11:31:46;27.20;85.50
18658;DHT22;9458;50.942;5.074;2023-06-26T11:34:14;27.50;86.10
18658;DHT22;9458;50.942;5.074;2023-06-26T11:36:41;27.60;85.30
18658;DHT22;9458;50.942;5.074;2023-06-26T11:39:11;27.60;86.20
18658;DHT22;9458;50.942;5.074;2023-06-26T11:41:42;27.00;89.90
18658;DHT22;9458;50.942;5.074;2023-06-26T11:44:11;27.20;87.90
18658;DHT22;9458;50.942;5.074;2023-06-26T11:46:39;27.20;85.30
18658;DHT22;9458;50.942;5.074;2023-06-26T11:49:08;27.40;84.30
18658;DHT22;9458;50.942;5.074;2023-06-26T11:51:35;27.30;83.40
18658;DHT22;9458;50.942;5.074;2023-06-26T11:54:02;27.20;84.40
18658;DHT22;9458;50.942;5.074;2023-06-26T11:56:30;27.40;88.40
18658;DHT22;9458;50.942;5.074;2023-06-26T11:58:59;27.30;87.60
18658;DHT22;9458;50.942;5.074;2023-06-26T12:01:30;27.00;85.00
18658;DHT22;9458;50.942;5.074;2023-06-26T12:03:58;27.30;87.50
18658;DHT22;9458;50.942;5.074;2023-06-26T12:06:25;27.50;84.90
18658;DHT22;9458;50.942;5.074;2023-06-26T12:08:53;27.60;87.00
18658;DHT22;9458;50.942;5.074;2023-06-26T12:11:19;27.50;84.10
18658;DHT22;9458;50.942;5.074;2023-06-26T12:13:49;27.00;84.40
18658;DHT22;9458;50.942;5.074;2023-06-26T12:16:17;26.90;90.00
18658;DHT22;9458;50.942;5.074;2023-06-26T12:18:45;27.20;87.70
18658;DHT22;9458;50.942;5.074;2023-06-26T12:23:57;26.90;85.20
18658;DHT22;9458;50.942;5.074;2023-06-26T12:26:25;26.90;86.20
18658;DHT22;9458;50.942;5.074;2023-06-26T12:28:52;27.00;87.60
18658;DHT22;9458;50.942;5.074;2023-06-26T12:31:21;27.30;86.60
18658;DHT22;9458;50.942;5.074;2023-06-26T12:33:48;27.20;86.00
18658;DHT22;9458;50.942;5.074;2023-06-26T12:36:17;27.10;83.20
18658;DHT22;9458;50.942;5.074;2023-06-26T12:38:44;27.20;83.20
18658;DHT22;9458;50.942;5.074;2023-06-26T12:41:12;27.60;86.20
18658;DHT22;9458;50.942;5.074;2023-06-26T12:43:40;28.00;87.10
18658;DHT22;9458;50.942;5.074;2023-06-26T12:46:07;28.00;86.80
18658;DHT22;9458;50.942;5.074;2023-06-26T12:48:39;27.20;84.20
18658;DHT22;9458;50.942;5.074;2023-06-26T12:51:09;27.00;87.20
18658;DHT22;9458;50.942;5.074;2023-06-26T12:53:36;27.20;88.20
18658;DHT22;9458;50.942;5.074;2023-06-26T12:56:05;27.40;87.20
18658;DHT22;9458;50.942;5.074;2023-06-26T12:58:32;27.20;84.40
18658;DHT22;9458;50.942;5.074;2023-06-26T13:00:58;27.50;85.00
18658;DHT22;9458;50.942;5.074;2023-06-26T13:03:25;27.50;83.90
18658;DHT22;9458;50.942;5.074;2023-06-26T13:05:56;27.00;83.80
18658;DHT22;9458;50.942;5.074;2023-06-26T13:08:24;27.10;84.30
18658;DHT22;9458;50.942;5.074;2023-06-26T13:10:51;27.10;82.90
18658;DHT22;9458;50.942;5.074;2023-06-26T13:13:18;27.00;81.10
18658;DHT22;9458;50.942;5.074;2023-06-26T13:15:45;26.80;82.20
18658;DHT22;9458;50.942;5.074;2023-06-26T13:18:12;26.90;81.40
18658;DHT22;9458;50.942;5.074;2023-06-26T13:20:39;26.90;80.10
18658;DHT22;9458;50.942;5.074;2023-06-26T13:23:07;27.10;79.20
18658;DHT22;9458;50.942;5.074;2023-06-26T13:25:33;26.80;80.90
18658;DHT22;9458;50.942;5.074;2023-06-26T13:28:00;27.00;82.50
18658;DHT22;9458;50.942;5.074;2023-06-26T13:30:27;27.20;83.40
18658;DHT22;9458;50.942;5.074;2023-06-26T13:32:55;27.20;79.00
18658;DHT22;9458;50.942;5.074;2023-06-26T13:35:22;27.20;83.30
18658;DHT22;9458;50.942;5.074;2023-06-26T13:37:49;27.00;81.90
18658;DHT22;9458;50.942;5.074;2023-06-26T13:40:17;27.00;82.90
18658;DHT22;9458;50.942;5.074;2023-06-26T13:42:44;27.30;85.90
18658;DHT22;9458;50.942;5.074;2023-06-26T13:45:11;27.20;81.10
18658;DHT22;9458;50.942;5.074;2023-06-26T13:47:38;27.20;80.30
18658;DHT22;9458;50.942;5.074;2023-06-26T13:50:07;27.10;82.30
18658;DHT22;9458;50.942;5.074;2023-06-26T13:52:34;27.00;83.40
18658;DHT22;9458;50.942;5.074;2023-06-26T13:55:01;26.90;83.50
18658;DHT22;9458;50.942;5.074;2023-06-26T13:57:31;26.80;84.20
18658;DHT22;9458;50.942;5.074;2023-06-26T13:59:59;26.60;83.40
18658;DHT22;9458;50.942;5.074;2023-06-26T14:02:25;26.70;82.40
18658;DHT22;9458;50.942;5.074;2023-06-26T14:04:53;26.80;83.90
18658;DHT22;9458;50.942;5.074;2023-06-26T14:07:20;26.90;85.00
18658;DHT22;9458;50.942;5.074;2023-06-26T14:09:47;26.90;82.80
18658;DHT22;9458;50.942;5.074;2023-06-26T14:12:13;26.70;82.90
18658;DHT22;9458;50.942;5.074;2023-06-26T14:14:42;26.80;81.60
18658;DHT22;9458;50.942;5.074;2023-06-26T14:17:09;27.00;82.90
18658;DHT22;9458;50.942;5.074;2023-06-26T14:19:41;27.00;82.60
18658;DHT22;9458;50.942;5.074;2023-06-26T14:22:08;26.90;84.90
18658;DHT22;9458;50.942;5.074;2023-06-26T14:24:35;26.60;83.30
18658;DHT22;9458;50.942;5.074;2023-06-26T14:27:02;26.50;83.70
18658;DHT22;9458;50.942;5.074;2023-06-26T14:29:29;26.70;82.20
18658;DHT22;9458;50.942;5.074;2023-06-26T14:31:58;26.90;81.90
18658;DHT22;9458;50.942;5.074;2023-06-26T14:34:25;26.70;82.90
18658;DHT22;9458;50.942;5.074;2023-06-26T14:36:52;26.50;82.00
18658;DHT22;9458;50.942;5.074;2023-06-26T14:39:19;26.20;81.90
18658;DHT22;9458;50.942;5.074;2023-06-26T14:41:46;26.10;84.30
18658;DHT22;9458;50.942;5.074;2023-06-26T14:44:14;26.40;82.70
18658;DHT22;9458;50.942;5.074;2023-06-26T14:46:40;26.80;83.60
18658;DHT22;9458;50.942;5.074;2023-06-26T14:49:09;26.70;83.80
18658;DHT22;9458;50.942;5.074;2023-06-26T14:51:36;26.60;84.90
18658;DHT22;9458;50.942;5.074;2023-06-26T14:54:04;26.50;85.80
18658;DHT22;9458;50.942;5.074;2023-06-26T14:56:31;26.70;84.60
18658;DHT22;9458;50.942;5.074;2023-06-26T14:58:58;26.60;82.60
18658;DHT22;9458;50.942;5.074;2023-06-26T15:01:25;26.60;82.80
18658;DHT22;9458;50.942;5.074;2023-06-26T15:03:52;26.40;83.30
18658;DHT22;9458;50.942;5.074;2023-06-26T15:06:20;26.20;83.00
18658;DHT22;9458;50.942;5.074;2023-06-26T15:08:47;26.50;86.40
18658;DHT22;9458;50.942;5.074;2023-06-26T15:11:14;26.40;83.70
18658;DHT22;9458;50.942;5.074;2023-06-26T15:13:41;26.70;85.50
18658;DHT22;9458;50.942;5.074;2023-06-26T15:16:08;26.90;85.20
18658;DHT22;9458;50.942;5.074;2023-06-26T15:18:35;26.80;82.90
18658;DHT22;9458;50.942;5.074;2023-06-26T15:21:02;26.60;84.40
18658;DHT22;9458;50.942;5.074;2023-06-26T15:23:30;26.50;86.20
18658;DHT22;9458;50.942;5.074;2023-06-26T15:25:57;26.60;85.00
18658;DHT22;9458;50.942;5.074;2023-06-26T15:28:24;26.60;83.50
18658;DHT22;9458;50.942;5.074;2023-06-26T15:30:51;26.40;83.50
18658;DHT22;9458;50.942;5.074;2023-06-26T15:33:18;26.50;85.80
18658;DHT22;9458;50.942;5.074;2023-06-26T15:35:45;26.40;85.60
18658;DHT22;9458;50.942;5.074;2023-06-26T15:38:12;26.50;85.70
18658;DHT22;9458;50.942;5.074;2023-06-26T15:40:40;26.40;84.10
18658;DHT22;9458;50.942;5.074;2023-06-26T15:43:07;26.40;84.70
18658;DHT22;9458;50.942;5.074;2023-06-26T15:45:34;26.10;83.30
18658;DHT22;9458;50.942;5.074;2023-06-26T15:48:01;25.90;84.70
18658;DHT22;9458;50.942;5.074;2023-06-26T15:50:28;25.80;85.30